createdAt,value
2019-06-01T00:01:44.692Z,19.88
2019-06-01T00:06:54.316Z,19.74
2019-06-01T00:12:01.331Z,19.72
2019-06-01T00:17:04.467Z,19.42
2019-06-01T00:22:06.299Z,19.35
2019-06-01T00:27:09.012Z,19.64
2019-06-01T00:32:10.801Z,19.93
2019-06-01T00:37:12.911Z,19.67
2019-06-01T00:42:14.740Z,19.82
2019-06-01T00:47:19.926Z,19.90
2019-06-01T00:52:21.589Z,19.83
2019-06-01T00:57:23.617Z,20.02
2019-06-01T01:02:25.434Z,20.02
2019-06-01T01:07:27.302Z,19.64
2019-06-01T01:12:29.133Z,20.34
2019-06-01T01:17:30.935Z,19.92
2019-06-01T01:22:32.778Z,19.78
2019-06-01T01:27:34.929Z,19.92
2019-06-01T01:32:38.117Z,20.04
2019-06-01T01:37:40.058Z,20.13
2019-06-01T01:42:44.893Z,20.24
2019-06-01T01:47:46.836Z,20.37
2019-06-01T01:52:48.638Z,20.27
2019-06-01T01:57:51.772Z,20.15
2019-06-01T02:02:54.049Z,19.67
2019-06-01T02:07:56.998Z,19.32
2019-06-01T02:13:00.065Z,19.89
2019-06-01T02:18:04.827Z,19.40
2019-06-01T02:23:06.658Z,19.13
2019-06-01T02:28:08.756Z,19.23
2019-06-01T02:33:11.023Z,19.18
2019-06-01T02:38:12.818Z,19.69
2019-06-01T02:43:14.706Z,18.76
2019-06-01T02:48:19.595Z,18.33
2019-06-01T02:53:23.792Z,18.43
2019-06-01T02:58:25.623Z,18.93
2019-06-01T03:03:27.430Z,18.43
2019-06-01T03:08:31.046Z,18.52
2019-06-01T03:13:36.155Z,18.21
2019-06-01T03:18:41.654Z,18.31
2019-06-01T03:23:46.817Z,17.81
2019-06-01T03:28:51.400Z,18.22
2019-06-01T03:33:55.742Z,18.38
2019-06-01T03:38:59.947Z,18.06
2019-06-01T03:44:04.466Z,18.24
2019-06-01T03:49:09.791Z,18.30
2019-06-01T03:54:13.161Z,18.17
2019-06-01T03:59:15.073Z,18.14
2019-06-01T04:04:16.879Z,18.24
2019-06-01T04:09:18.693Z,18.19
2019-06-01T04:14:20.532Z,18.30
2019-06-01T04:19:22.334Z,18.79
2019-06-01T04:24:24.449Z,18.44
2019-06-01T04:29:26.287Z,18.84
2019-06-01T04:34:31.844Z,18.66
2019-06-01T04:39:33.661Z,18.51
2019-06-01T04:44:35.506Z,19.54
2019-06-01T04:49:37.082Z,19.61
2019-06-01T04:54:39.369Z,20.54
2019-06-01T04:59:41.176Z,20.24
2019-06-01T05:04:43.598Z,20.59
2019-06-01T05:09:45.956Z,20.29
2019-06-01T05:14:47.657Z,21.40
2019-06-01T05:19:49.460Z,21.93
2019-06-01T05:24:51.306Z,21.70
2019-06-01T05:29:55.952Z,22.06
2019-06-01T05:34:59.755Z,22.03
2019-06-01T05:40:01.604Z,22.79
2019-06-01T05:45:04.939Z,23.83
2019-06-01T05:50:07.395Z,26.09
2019-06-01T05:55:10.381Z,26.49
2019-06-01T06:00:13.212Z,26.85
2019-06-01T06:05:15.084Z,26.96
2019-06-01T06:10:18.477Z,26.64
2019-06-01T06:15:21.803Z,25.69
2019-06-01T06:20:23.724Z,26.76
2019-06-01T06:25:28.659Z,26.86
2019-06-01T06:30:29.557Z,28.47
2019-06-01T06:35:31.576Z,24.64
2019-06-01T06:40:33.491Z,25.72
2019-06-01T06:45:38.276Z,25.71
2019-06-01T06:50:40.096Z,27.14
2019-06-01T06:55:41.910Z,26.51
2019-06-01T07:00:43.782Z,28.72
2019-06-01T07:05:46.945Z,28.34
2019-06-01T07:10:50.590Z,27.91
2019-06-01T07:15:52.664Z,29.68
2019-06-01T07:20:58.026Z,26.39
2019-06-01T07:26:03.827Z,29.61
2019-06-01T07:31:05.692Z,28.99
2019-06-01T07:36:07.672Z,27.38
2019-06-01T07:41:09.481Z,29.51
2019-06-01T07:46:11.326Z,30.08
2019-06-01T07:51:13.250Z,30.84
2019-06-01T07:56:17.797Z,30.71
2019-06-01T08:01:19.624Z,28.49
2019-06-01T08:06:23.952Z,31.75
2019-06-01T08:11:30.089Z,27.13
2019-06-01T08:16:32.025Z,26.34
2019-06-01T08:21:34.059Z,25.69
2019-06-01T08:26:40.888Z,27.26
2019-06-01T08:31:42.736Z,26.09
2019-06-01T08:36:44.684Z,27.25
2019-06-01T08:41:46.497Z,26.75
2019-06-01T08:46:48.322Z,26.85
2019-06-01T08:51:50.143Z,27.05
2019-06-01T08:56:52.010Z,27.01
2019-06-01T09:01:53.806Z,27.27
2019-06-01T09:06:55.780Z,27.60
2019-06-01T09:11:57.614Z,27.88
2019-06-01T09:16:59.560Z,28.70
2019-06-01T09:22:01.385Z,27.56
2019-06-01T09:27:04.167Z,28.01
2019-06-01T09:32:10.487Z,27.88
2019-06-01T09:37:09.757Z,27.86
2019-06-01T09:42:11.579Z,27.80
2019-06-01T09:47:13.591Z,28.51
2019-06-01T09:52:15.442Z,28.16
2019-06-01T09:57:19.391Z,28.20
2019-06-01T10:02:22.107Z,28.66
2019-06-01T10:07:23.962Z,28.94
2019-06-01T10:12:25.771Z,27.49
2019-06-01T10:17:27.627Z,28.02
2019-06-01T10:22:33.097Z,28.76
2019-06-01T10:27:36.739Z,28.73
2019-06-01T10:32:39.913Z,28.49
2019-06-01T10:37:42.230Z,28.24
2019-06-01T10:42:44.079Z,28.38
2019-06-01T10:47:48.714Z,28.42
2019-06-01T10:52:50.526Z,28.50
2019-06-01T10:57:52.374Z,28.32
2019-06-01T11:02:57.055Z,28.72
2019-06-01T11:07:58.871Z,28.69
2019-06-01T11:13:00.980Z,28.78
2019-06-01T11:18:05.533Z,28.79
2019-06-01T11:23:07.357Z,28.40
2019-06-01T11:28:09.464Z,28.65
2019-06-01T11:33:11.273Z,28.47
2019-06-01T11:38:13.208Z,28.55
2019-06-01T11:43:15.387Z,28.32
2019-06-01T11:48:19.387Z,28.50
2019-06-01T11:53:21.365Z,28.77
2019-06-01T11:58:27.108Z,28.34
2019-06-01T12:03:31.222Z,28.30
2019-06-01T12:08:34.268Z,28.78
2019-06-01T12:13:37.969Z,28.33
2019-06-01T12:18:40.632Z,28.69
2019-06-01T12:23:43.230Z,28.65
2019-06-01T12:28:45.818Z,28.85
2019-06-01T12:33:49.635Z,28.74
2019-06-01T12:38:51.913Z,28.71
2019-06-01T12:44:12.936Z,28.45
2019-06-01T12:49:14.775Z,28.57
2019-06-01T12:54:16.453Z,28.51
2019-06-01T12:59:18.416Z,28.05
2019-06-01T13:04:20.422Z,28.64
2019-06-01T13:09:23.674Z,28.76
2019-06-01T13:14:25.788Z,28.92
2019-06-01T13:19:29.562Z,28.67
2019-06-01T13:24:31.593Z,28.83
2019-06-01T13:29:35.966Z,28.63
2019-06-01T13:34:37.678Z,28.99
2019-06-01T13:39:39.519Z,28.48
2019-06-01T13:44:41.351Z,29.02
2019-06-01T13:49:46.844Z,28.72
2019-06-01T13:54:52.457Z,28.83
2019-06-01T13:59:57.399Z,28.93
2019-06-01T14:04:59.124Z,29.11
2019-06-01T14:10:01.899Z,28.79
2019-06-01T14:15:04.297Z,28.88
2019-06-01T14:20:06.998Z,28.84
2019-06-01T14:25:14.183Z,28.73
2019-06-01T14:30:14.468Z,28.85
2019-06-01T14:35:16.279Z,29.19
2019-06-01T14:40:18.083Z,28.96
2019-06-01T14:45:20.158Z,29.03
2019-06-01T14:50:24.933Z,29.40
2019-06-01T14:55:26.956Z,28.96
2019-06-01T15:00:28.762Z,28.67
2019-06-01T15:05:35.432Z,28.93
2019-06-01T15:10:40.090Z,29.07
2019-06-01T15:15:42.196Z,29.23
2019-06-01T15:20:44.009Z,29.08
2019-06-01T15:25:47.644Z,29.34
2019-06-01T15:30:50.730Z,29.18
2019-06-01T15:35:55.983Z,28.97
2019-06-01T15:40:58.224Z,29.45
2019-06-01T15:46:06.560Z,29.40
2019-06-01T15:51:10.595Z,29.68
2019-06-01T15:56:14.424Z,29.52
2019-06-01T16:01:18.999Z,29.83
2019-06-01T16:06:20.859Z,29.41
2019-06-01T16:11:22.681Z,29.89
2019-06-01T16:16:24.709Z,29.03
2019-06-01T16:21:26.553Z,29.14
2019-06-01T16:26:28.183Z,29.04
2019-06-01T16:31:32.125Z,29.33
2019-06-01T16:36:34.039Z,29.81
2019-06-01T16:41:35.821Z,29.23
2019-06-01T16:46:43.034Z,28.67
2019-06-01T16:51:56.406Z,28.88
2019-06-01T16:57:05.239Z,28.98
2019-06-01T17:02:07.931Z,29.16
2019-06-01T17:07:10.367Z,29.02
2019-06-01T17:12:15.240Z,28.57
2019-06-01T17:17:17.378Z,28.32
2019-06-01T17:22:19.245Z,28.83
2019-06-01T17:27:21.060Z,28.72
2019-06-01T17:32:24.552Z,28.26
2019-06-01T17:37:26.572Z,28.09
2019-06-01T17:42:28.567Z,28.27
2019-06-01T17:47:32.747Z,28.08
2019-06-01T17:52:36.416Z,28.23
2019-06-01T17:57:38.962Z,27.77
2019-06-01T18:02:40.826Z,28.21
2019-06-01T18:07:46.132Z,28.05
2019-06-01T18:12:48.066Z,27.99
2019-06-01T18:17:54.171Z,28.32
2019-06-01T18:23:00.483Z,27.08
2019-06-01T18:28:07.145Z,27.87
2019-06-01T18:33:09.501Z,27.52
2019-06-01T18:38:13.019Z,26.75
2019-06-01T18:43:17.297Z,27.37
2019-06-01T18:48:19.707Z,27.12
2019-06-01T18:53:21.885Z,27.06
2019-06-01T18:58:24.060Z,27.45
2019-06-01T19:03:25.975Z,27.28
2019-06-01T19:08:28.096Z,26.57
2019-06-01T19:13:31.886Z,27.19
2019-06-01T19:18:34.317Z,26.68
2019-06-01T19:23:36.333Z,26.55
2019-06-01T19:28:39.162Z,26.43
2019-06-01T19:33:42.871Z,26.55
2019-06-01T19:38:45.395Z,26.41
2019-06-01T19:43:49.827Z,26.44
2019-06-01T19:48:51.568Z,26.05
2019-06-01T19:53:53.392Z,26.01
2019-06-01T19:58:57.442Z,25.92
2019-06-01T20:03:59.331Z,25.74
2019-06-01T20:09:01.146Z,25.44
2019-06-01T20:14:03.483Z,26.07
2019-06-01T20:19:06.534Z,25.39
2019-06-01T20:24:09.656Z,25.56
2019-06-01T20:29:12.745Z,25.26
2019-06-01T20:34:15.868Z,25.59
2019-06-01T20:39:18.282Z,25.46
2019-06-01T20:44:20.968Z,25.21
2019-06-01T20:49:24.450Z,25.15
2019-06-01T20:54:27.560Z,25.09
2019-06-01T20:59:31.896Z,24.91
2019-06-01T21:04:36.737Z,24.85
2019-06-01T21:09:38.653Z,24.60
2019-06-01T21:14:41.114Z,24.60
2019-06-01T21:19:43.132Z,24.48
2019-06-01T21:24:45.087Z,24.37
2019-06-01T21:29:48.665Z,24.65
2019-06-01T21:34:50.690Z,24.41
2019-06-01T21:39:52.504Z,24.43
2019-06-01T21:44:54.377Z,24.30
2019-06-01T21:49:56.262Z,24.23
2019-06-01T21:54:58.326Z,24.03
2019-06-01T22:00:02.720Z,24.33
2019-06-01T22:05:05.222Z,23.62
2019-06-01T22:10:07.865Z,23.74
2019-06-01T22:15:12.763Z,24.14
2019-06-01T22:20:16.013Z,23.48
2019-06-01T22:25:18.491Z,23.83
2019-06-01T22:30:22.429Z,23.89
2019-06-01T22:35:24.783Z,24.04
2019-06-01T22:40:29.520Z,23.82
2019-06-01T22:45:31.366Z,23.66
2019-06-01T22:50:33.307Z,23.45
2019-06-01T22:55:35.501Z,23.59
2019-06-01T23:00:37.310Z,23.25
2019-06-01T23:05:39.207Z,23.71
2019-06-01T23:10:41.097Z,23.17
2019-06-01T23:15:43.149Z,23.08
2019-06-01T23:20:44.964Z,23.75
2019-06-01T23:25:51.686Z,23.78
2019-06-01T23:30:53.533Z,23.84
2019-06-01T23:35:56.261Z,23.60
2019-06-01T23:40:58.074Z,23.76
2019-06-01T23:46:00.010Z,23.84
2019-06-01T23:51:01.900Z,24.05
2019-06-01T23:56:03.889Z,24.06
